sensor_id;sensor_type;location;lat;lon;timestamp;pressure;altitude;pressure_sealevel;temperature;humidity
13867;BME280;7003;46.982;15.248;2023-02-10T00:01:20;99032.28;;;-6.68;100.00
13867;BME280;7003;46.982;15.248;2023-02-10T00:03:48;99029.94;;;-6.54;100.00
13867;BME280;7003;46.982;15.248;2023-02-10T00:06:17;99028.38;;;-6.64;100.00
13867;BME280;7003;46.982;15.248;2023-02-10T00:08:46;99021.16;;;-6.76;100.00
13867;BME280;7003;46.982;15.248;2023-02-10T00:11:18;99020.88;;;-6.81;100.00
13867;BME280;7003;46.982;15.248;2023-02-10T00:14:08;99028.94;;;-6.84;100.00
13867;BME280;7003;46.982;15.248;2023-02-10T00:16:38;99019.88;;;-6.80;100.00
13867;BME280;7003;46.982;15.248;2023-02-10T00:19:05;99019.38;;;-6.76;100.00
13867;BME280;7003;46.982;15.248;2023-02-10T00:21:33;99022.00;;;-6.84;100.00
13867;BME280;7003;46.982;15.248;2023-02-10T00:24:00;99016.66;;;-6.82;100.00
13867;BME280;7003;46.982;15.248;2023-02-10T00:26:28;99019.44;;;-6.92;100.00
13867;BME280;7003;46.982;15.248;2023-02-10T00:28:57;99010.06;;;-6.93;100.00
13867;BME280;7003;46.982;15.248;2023-02-10T00:31:27;99012.63;;;-6.85;100.00
13867;BME280;7003;46.982;15.248;2023-02-10T00:33:54;99018.66;;;-7.01;100.00
13867;BME280;7003;46.982;15.248;2023-02-10T00:36:21;99027.25;;;-7.08;100.00
13867;BME280;7003;46.982;15.248;2023-02-10T00:38:50;99025.66;;;-7.17;100.00
13867;BME280;7003;46.982;15.248;2023-02-10T00:41:20;99023.06;;;-7.17;100.00
13867;BME280;7003;46.982;15.248;2023-02-10T00:43:51;99010.81;;;-7.23;100.00
13867;BME280;7003;46.982;15.248;2023-02-10T00:46:20;99023.75;;;-7.31;100.00
13867;BME280;7003;46.982;15.248;2023-02-10T00:48:47;99025.22;;;-7.29;100.00
13867;BME280;7003;46.982;15.248;2023-02-10T00:51:17;99016.31;;;-7.26;100.00
13867;BME280;7003;46.982;15.248;2023-02-10T00:53:47;99023.44;;;-7.20;100.00
13867;BME280;7003;46.982;15.248;2023-02-10T00:56:18;99020.69;;;-7.35;100.00
13867;BME280;7003;46.982;15.248;2023-02-10T00:58:46;99021.50;;;-7.34;100.00
13867;BME280;7003;46.982;15.248;2023-02-10T01:01:15;99029.09;;;-7.33;100.00
13867;BME280;7003;46.982;15.248;2023-02-10T01:03:44;99021.84;;;-7.46;100.00
13867;BME280;7003;46.982;15.248;2023-02-10T01:06:13;99026.22;;;-7.38;100.00
13867;BME280;7003;46.982;15.248;2023-02-10T01:08:42;99018.31;;;-7.45;100.00
13867;BME280;7003;46.982;15.248;2023-02-10T01:11:11;99024.63;;;-7.63;100.00
13867;BME280;7003;46.982;15.248;2023-02-10T01:13:39;99020.91;;;-7.61;100.00
13867;BME280;7003;46.982;15.248;2023-02-10T01:16:11;99024.47;;;-7.54;100.00
13867;BME280;7003;46.982;15.248;2023-02-10T01:18:41;99023.81;;;-7.56;100.00
13867;BME280;7003;46.982;15.248;2023-02-10T01:21:09;99025.09;;;-7.52;100.00
13867;BME280;7003;46.982;15.248;2023-02-10T01:23:37;99020.91;;;-7.61;100.00
13867;BME280;7003;46.982;15.248;2023-02-10T01:26:07;99024.31;;;-7.68;100.00
13867;BME280;7003;46.982;15.248;2023-02-10T01:28:37;99023.81;;;-7.72;100.00
13867;BME280;7003;46.982;15.248;2023-02-10T01:31:07;99029.31;;;-7.67;100.00
13867;BME280;7003;46.982;15.248;2023-02-10T01:33:38;99022.53;;;-7.76;100.00
13867;BME280;7003;46.982;15.248;2023-02-10T01:36:11;99020.28;;;-7.71;100.00
13867;BME280;7003;46.982;15.248;2023-02-10T01:38:38;99016.06;;;-7.72;100.00
13867;BME280;7003;46.982;15.248;2023-02-10T01:41:08;99020.94;;;-7.77;100.00
13867;BME280;7003;46.982;15.248;2023-02-10T01:43:56;99009.63;;;-7.76;100.00
13867;BME280;7003;46.982;15.248;2023-02-10T01:46:27;99002.84;;;-7.77;100.00
13867;BME280;7003;46.982;15.248;2023-02-10T01:49:00;99000.41;;;-7.87;100.00
13867;BME280;7003;46.982;15.248;2023-02-10T01:51:36;99004.47;;;-7.76;100.00
13867;BME280;7003;46.982;15.248;2023-02-10T01:54:04;98998.78;;;-7.71;100.00
13867;BME280;7003;46.982;15.248;2023-02-10T01:56:36;99002.34;;;-7.81;100.00
13867;BME280;7003;46.982;15.248;2023-02-10T01:59:03;99007.34;;;-7.79;100.00
13867;BME280;7003;46.982;15.248;2023-02-10T02:01:31;99003.47;;;-7.59;100.00
13867;BME280;7003;46.982;15.248;2023-02-10T02:03:58;99015.75;;;-7.61;100.00
13867;BME280;7003;46.982;15.248;2023-02-10T02:06:27;99011.41;;;-7.68;100.00
13867;BME280;7003;46.982;15.248;2023-02-10T02:08:58;99014.44;;;-7.97;100.00
13867;BME280;7003;46.982;15.248;2023-02-10T02:11:33;99010.91;;;-7.96;100.00
13867;BME280;7003;46.982;15.248;2023-02-10T02:14:23;99007.22;;;-7.94;100.00
13867;BME280;7003;46.982;15.248;2023-02-10T02:17:05;99002.19;;;-7.87;100.00
13867;BME280;7003;46.982;15.248;2023-02-10T02:20:23;99007.69;;;-7.98;100.00
13867;BME280;7003;46.982;15.248;2023-02-10T02:23:23;98993.78;;;-7.89;100.00
13867;BME280;7003;46.982;15.248;2023-02-10T02:29:22;98995.56;;;-7.73;100.00
13867;BME280;7003;46.982;15.248;2023-02-10T02:32:02;98991.03;;;-7.71;100.00
13867;BME280;7003;46.982;15.248;2023-02-10T02:34:37;98990.09;;;-7.87;100.00
13867;BME280;7003;46.982;15.248;2023-02-10T02:37:11;98986.53;;;-8.02;100.00
13867;BME280;7003;46.982;15.248;2023-02-10T02:39:40;98987.34;;;-8.01;100.00
13867;BME280;7003;46.982;15.248;2023-02-10T02:42:17;98986.53;;;-8.02;100.00
13867;BME280;7003;46.982;15.248;2023-02-10T02:44:46;98983.66;;;-8.15;100.00
13867;BME280;7003;46.982;15.248;2023-02-10T02:47:25;98986.88;;;-8.21;100.00
13867;BME280;7003;46.982;15.248;2023-02-10T02:50:04;98994.28;;;-8.10;100.00
13867;BME280;7003;46.982;15.248;2023-02-10T02:52:41;98994.13;;;-8.17;100.00
13867;BME280;7003;46.982;15.248;2023-02-10T02:55:14;98994.44;;;-8.20;100.00
13867;BME280;7003;46.982;15.248;2023-02-10T02:57:51;98990.25;;;-8.12;100.00
13867;BME280;7003;46.982;15.248;2023-02-10T03:00:23;98990.59;;;-8.32;100.00
13867;BME280;7003;46.982;15.248;2023-02-10T03:02:54;98988.97;;;-8.25;100.00
13867;BME280;7003;46.982;15.248;2023-02-10T03:05:23;98999.78;;;-8.37;100.00
13867;BME280;7003;46.982;15.248;2023-02-10T03:07:56;98986.38;;;-8.41;100.00
13867;BME280;7003;46.982;15.248;2023-02-10T03:10:27;98994.28;;;-8.34;100.00
13867;BME280;7003;46.982;15.248;2023-02-10T03:12:54;98996.69;;;-8.25;100.00
13867;BME280;7003;46.982;15.248;2023-02-10T03:15:25;98997.38;;;-8.39;100.00
13867;BME280;7003;46.982;15.248;2023-02-10T03:17:54;98995.91;;;-8.33;100.00
13867;BME280;7003;46.982;15.248;2023-02-10T03:20:25;98996.06;;;-8.43;100.00
13867;BME280;7003;46.982;15.248;2023-02-10T03:22:54;98993.47;;;-8.51;100.00
13867;BME280;7003;46.982;15.248;2023-02-10T03:25:22;98993.00;;;-8.46;100.00
13867;BME280;7003;46.982;15.248;2023-02-10T03:27:51;98998.31;;;-8.16;100.00
13867;BME280;7003;46.982;15.248;2023-02-10T03:30:19;98998.00;;;-8.53;100.00
13867;BME280;7003;46.982;15.248;2023-02-10T03:32:45;98996.72;;;-8.41;100.00
13867;BME280;7003;46.982;15.248;2023-02-10T03:35:15;98988.97;;;-8.49;100.00
13867;BME280;7003;46.982;15.248;2023-02-10T03:37:45;99003.50;;;-8.40;100.00
13867;BME280;7003;46.982;15.248;2023-02-10T03:40:15;98993.47;;;-8.27;100.00
13867;BME280;7003;46.982;15.248;2023-02-10T03:42:42;99011.25;;;-8.32;100.00
13867;BME280;7003;46.982;15.248;2023-02-10T03:45:11;99008.00;;;-8.34;100.00
13867;BME280;7003;46.982;15.248;2023-02-10T03:47:46;99004.13;;;-8.30;100.00
13867;BME280;7003;46.982;15.248;2023-02-10T03:50:14;99007.84;;;-8.40;100.00
13867;BME280;7003;46.982;15.248;2023-02-10T03:52:41;98999.78;;;-8.37;100.00
13867;BME280;7003;46.982;15.248;2023-02-10T03:55:08;98991.22;;;-8.54;100.00
13867;BME280;7003;46.982;15.248;2023-02-10T03:57:40;99023.78;;;-8.53;100.00
13867;BME280;7003;46.982;15.248;2023-02-10T04:00:08;99029.91;;;-8.62;100.00
13867;BME280;7003;46.982;15.248;2023-02-10T04:02:37;99025.59;;;-8.87;100.00
13867;BME280;7003;46.982;15.248;2023-02-10T04:05:09;99024.84;;;-8.80;100.00
13867;BME280;7003;46.982;15.248;2023-02-10T04:07:40;99031.16;;;-8.66;100.00
13867;BME280;7003;46.982;15.248;2023-02-10T04:10:08;99042.47;;;-8.59;100.00
13867;BME280;7003;46.982;15.248;2023-02-10T04:12:37;99043.25;;;-8.67;100.00
13867;BME280;7003;46.982;15.248;2023-02-10T04:15:07;99035.72;;;-8.60;100.00
13867;BME280;7003;46.982;15.248;2023-02-10T04:17:38;99032.56;;;-8.80;100.00
13867;BME280;7003;46.982;15.248;2023-02-10T04:20:07;99033.69;;;-8.82;100.00
13867;BME280;7003;46.982;15.248;2023-02-10T04:22:35;99026.34;;;-8.69;100.00
13867;BME280;7003;46.982;15.248;2023-02-10T04:25:10;99032.69;;;-8.39;100.00
13867;BME280;7003;46.982;15.248;2023-02-10T04:27:42;99031.94;;;-8.74;100.00
13867;BME280;7003;46.982;15.248;2023-02-10T04:30:13;99021.81;;;-8.59;100.00
13867;BME280;7003;46.982;15.248;2023-02-10T04:32:40;99016.34;;;-8.64;100.00
13867;BME280;7003;46.982;15.248;2023-02-10T04:35:10;99015.19;;;-8.78;100.00
13867;BME280;7003;46.982;15.248;2023-02-10T04:37:38;99022.25;;;-8.80;100.00
13867;BME280;7003;46.982;15.248;2023-02-10T04:40:11;99018.22;;;-8.74;100.00
13867;BME280;7003;46.982;15.248;2023-02-10T04:42:38;99015.66;;;-8.74;100.00
13867;BME280;7003;46.982;15.248;2023-02-10T04:45:06;99017.66;;;-8.60;100.00
13867;BME280;7003;46.982;15.248;2023-02-10T04:47:34;99021.78;;;-8.83;100.00
13867;BME280;7003;46.982;15.248;2023-02-10T04:50:03;99016.22;;;-8.97;100.00
13867;BME280;7003;46.982;15.248;2023-02-10T04:52:34;99024.28;;;-9.00;100.00
13867;BME280;7003;46.982;15.248;2023-02-10T04:55:01;99015.84;;;-9.10;100.00
13867;BME280;7003;46.982;15.248;2023-02-10T04:57:33;99022.59;;;-9.17;100.00
13867;BME280;7003;46.982;15.248;2023-02-10T05:00:01;99019.88;;;-9.15;100.00
13867;BME280;7003;46.982;15.248;2023-02-10T05:02:29;99025.66;;;-9.13;100.00
13867;BME280;7003;46.982;15.248;2023-02-10T05:04:56;99029.38;;;-9.16;100.00
13867;BME280;7003;46.982;15.248;2023-02-10T05:07:23;99026.47;;;-9.13;100.00
13867;BME280;7003;46.982;15.248;2023-02-10T05:09:50;99036.13;;;-9.15;100.00
13867;BME280;7003;46.982;15.248;2023-02-10T05:12:20;99025.78;;;-8.81;100.00
13867;BME280;7003;46.982;15.248;2023-02-10T05:14:49;99031.25;;;-8.92;100.00
13867;BME280;7003;46.982;15.248;2023-02-10T05:17:18;99039.44;;;-8.97;100.00
13867;BME280;7003;46.982;15.248;2023-02-10T05:19:47;99036.97;;;-8.64;100.00
13867;BME280;7003;46.982;15.248;2023-02-10T05:22:17;99034.16;;;-8.87;100.00
13867;BME280;7003;46.982;15.248;2023-02-10T05:24:44;99036.19;;;-9.07;100.00
13867;BME280;7003;46.982;15.248;2023-02-10T05:27:11;99033.94;;;-9.02;100.00
13867;BME280;7003;46.982;15.248;2023-02-10T05:29:41;99044.06;;;-9.08;100.00
13867;BME280;7003;46.982;15.248;2023-02-10T05:32:11;99043.69;;;-9.13;100.00
13867;BME280;7003;46.982;15.248;2023-02-10T05:34:39;99050.44;;;-9.20;100.00
13867;BME280;7003;46.982;15.248;2023-02-10T05:37:09;99049.69;;;-9.05;100.00
13867;BME280;7003;46.982;15.248;2023-02-10T05:39:38;99049.97;;;-9.16;100.00
13867;BME280;7003;46.982;15.248;2023-02-10T05:42:08;99058.47;;;-9.23;100.00
13867;BME280;7003;46.982;15.248;2023-02-10T05:44:35;99050.44;;;-9.20;100.00
13867;BME280;7003;46.982;15.248;2023-02-10T05:47:05;99064.53;;;-9.07;100.00
13867;BME280;7003;46.982;15.248;2023-02-10T05:49:36;99058.91;;;-9.02;100.00
13867;BME280;7003;46.982;15.248;2023-02-10T05:52:04;99057.22;;;-8.85;100.00
13867;BME280;7003;46.982;15.248;2023-02-10T05:54:32;99063.63;;;-8.89;100.00
13867;BME280;7003;46.982;15.248;2023-02-10T05:57:02;99060.56;;;-8.93;100.00
13867;BME280;7003;46.982;15.248;2023-02-10T05:59:32;99062.81;;;-8.98;100.00
13867;BME280;7003;46.982;15.248;2023-02-10T06:02:01;99061.28;;;-9.09;100.00
13867;BME280;7003;46.982;15.248;2023-02-10T06:04:31;99051.13;;;-9.10;100.00
13867;BME280;7003;46.982;15.248;2023-02-10T06:07:02;99051.06;;;-8.92;100.00
13867;BME280;7003;46.982;15.248;2023-02-10T06:09:34;99052.47;;;-9.06;100.00
13867;BME280;7003;46.982;15.248;2023-02-10T06:12:03;99060.97;;;-9.06;100.00
13867;BME280;7003;46.982;15.248;2023-02-10T06:14:33;99056.81;;;-9.32;100.00
13867;BME280;7003;46.982;15.248;2023-02-10T06:17:08;99063.72;;;-9.33;100.00
13867;BME280;7003;46.982;15.248;2023-02-10T06:19:40;99059.63;;;-9.18;100.00
13867;BME280;7003;46.982;15.248;2023-02-10T06:22:11;99059.81;;;-9.11;100.00
13867;BME280;7003;46.982;15.248;2023-02-10T06:24:43;99060.78;;;-9.12;100.00
13867;BME280;7003;46.982;15.248;2023-02-10T06:27:16;99068.13;;;-9.00;100.00
13867;BME280;7003;46.982;15.248;2023-02-10T06:29:45;99075.09;;;-8.92;100.00
13867;BME280;7003;46.982;15.248;2023-02-10T06:32:15;99081.78;;;-9.07;100.00
13867;BME280;7003;46.982;15.248;2023-02-10T06:34:45;99069.44;;;-8.87;100.00
13867;BME280;7003;46.982;15.248;2023-02-10T06:37:17;99077.84;;;-8.85;100.00
13867;BME280;7003;46.982;15.248;2023-02-10T06:39:47;99088.06;;;-9.02;100.00
13867;BME280;7003;46.982;15.248;2023-02-10T06:42:16;99096.84;;;-8.86;100.00
13867;BME280;7003;46.982;15.248;2023-02-10T06:44:49;99102.34;;;-8.81;100.00
13867;BME280;7003;46.982;15.248;2023-02-10T06:47:21;99107.22;;;-8.78;100.00
13867;BME280;7003;46.982;15.248;2023-02-10T06:49:54;99110.53;;;-8.60;100.00
13867;BME280;7003;46.982;15.248;2023-02-10T06:52:25;99109.09;;;-8.54;100.00
13867;BME280;7003;46.982;15.248;2023-02-10T06:54:54;99121.88;;;-8.45;100.00
13867;BME280;7003;46.982;15.248;2023-02-10T06:57:23;99118.72;;;-8.14;100.00
13867;BME280;7003;46.982;15.248;2023-02-10T06:59:52;99131.31;;;-7.95;100.00
13867;BME280;7003;46.982;15.248;2023-02-10T07:02:21;99130.09;;;-7.67;100.00
13867;BME280;7003;46.982;15.248;2023-02-10T07:04:55;99129.75;;;-7.48;100.00
13867;BME280;7003;46.982;15.248;2023-02-10T07:07:26;99132.34;;;-7.23;100.00
13867;BME280;7003;46.982;15.248;2023-02-10T07:09:55;99124.88;;;-7.02;100.00
13867;BME280;7003;46.982;15.248;2023-02-10T07:12:26;99123.56;;;-6.82;100.00
13867;BME280;7003;46.982;15.248;2023-02-10T07:14:54;99131.44;;;-6.67;100.00
13867;BME280;7003;46.982;15.248;2023-02-10T07:17:24;99126.66;;;-6.47;100.00
13867;BME280;7003;46.982;15.248;2023-02-10T07:19:55;99125.59;;;-6.22;100.00
13867;BME280;7003;46.982;15.248;2023-02-10T07:22:23;99130.16;;;-6.01;100.00
13867;BME280;7003;46.982;15.248;2023-02-10T07:24:53;99126.94;;;-6.03;100.00
13867;BME280;7003;46.982;15.248;2023-02-10T07:27:21;99132.88;;;-5.95;100.00
13867;BME280;7003;46.982;15.248;2023-02-10T07:29:52;99137.44;;;-5.97;100.00
13867;BME280;7003;46.982;15.248;2023-02-10T07:32:21;99141.94;;;-5.91;100.00
13867;BME280;7003;46.982;15.248;2023-02-10T07:34:52;99145.75;;;-5.64;100.00
13867;BME280;7003;46.982;15.248;2023-02-10T07:37:22;99144.03;;;-5.71;100.00
13867;BME280;7003;46.982;15.248;2023-02-10T07:39:54;99143.00;;;-5.62;100.00
13867;BME280;7003;46.982;15.248;2023-02-10T07:42:23;99141.31;;;-5.32;100.00
13867;BME280;7003;46.982;15.248;2023-02-10T07:44:53;99143.25;;;-5.12;100.00
13867;BME280;7003;46.982;15.248;2023-02-10T07:47:23;99142.09;;;-4.94;100.00
13867;BME280;7003;46.982;15.248;2023-02-10T07:49:53;99146.25;;;-4.71;100.00
13867;BME280;7003;46.982;15.248;2023-02-10T07:52:23;99143.84;;;-4.57;100.00
13867;BME280;7003;46.982;15.248;2023-02-10T07:54:54;99140.19;;;-4.34;100.00
13867;BME280;7003;46.982;15.248;2023-02-10T07:57:22;99145.84;;;-4.09;100.00
13867;BME280;7003;46.982;15.248;2023-02-10T07:59:51;99153.72;;;-4.02;100.00
13867;BME280;7003;46.982;15.248;2023-02-10T08:02:19;99154.13;;;-3.84;100.00
13867;BME280;7003;46.982;15.248;2023-02-10T08:04:47;99154.28;;;-3.71;100.00
13867;BME280;7003;46.982;15.248;2023-02-10T08:07:20;99154.31;;;-3.50;100.00
13867;BME280;7003;46.982;15.248;2023-02-10T08:09:50;99150.69;;;-3.27;100.00
13867;BME280;7003;46.982;15.248;2023-02-10T08:12:20;99155.16;;;-2.93;100.00
13867;BME280;7003;46.982;15.248;2023-02-10T08:14:48;99161.88;;;-2.78;100.00
13867;BME280;7003;46.982;15.248;2023-02-10T08:17:16;99164.59;;;-2.64;100.00
13867;BME280;7003;46.982;15.248;2023-02-10T08:19:45;99164.03;;;-2.53;100.00
13867;BME280;7003;46.982;15.248;2023-02-10T08:22:15;99153.34;;;-2.30;100.00
13867;BME280;7003;46.982;15.248;2023-02-10T08:24:45;99148.59;;;-2.14;100.00
13867;BME280;7003;46.982;15.248;2023-02-10T08:27:15;99142.88;;;-1.96;100.00
13867;BME280;7003;46.982;15.248;2023-02-10T08:29:45;99134.25;;;-1.97;100.00
13867;BME280;7003;46.982;15.248;2023-02-10T08:32:14;99127.06;;;-1.68;100.00
13867;BME280;7003;46.982;15.248;2023-02-10T08:34:45;99126.72;;;-1.45;100.00
13867;BME280;7003;46.982;15.248;2023-02-10T08:37:17;99124.72;;;-1.30;100.00
13867;BME280;7003;46.982;15.248;2023-02-10T08:39:45;99132.34;;;-1.16;100.00
13867;BME280;7003;46.982;15.248;2023-02-10T08:42:13;99127.91;;;-0.82;100.00
13867;BME280;7003;46.982;15.248;2023-02-10T08:44:46;99133.09;;;-0.69;100.00
13867;BME280;7003;46.982;15.248;2023-02-10T08:47:13;99131.50;;;-0.57;100.00
13867;BME280;7003;46.982;15.248;2023-02-10T08:49:43;99137.44;;;-0.23;100.00
13867;BME280;7003;46.982;15.248;2023-02-10T08:52:14;99139.16;;;-0.04;100.00
13867;BME280;7003;46.982;15.248;2023-02-10T08:54:42;99141.09;;;0.14;98.94
13867;BME280;7003;46.982;15.248;2023-02-10T08:57:12;99142.00;;;0.32;100.00
13867;BME280;7003;46.982;15.248;2023-02-10T08:59:42;99140.88;;;0.78;100.00
13867;BME280;7003;46.982;15.248;2023-02-10T09:02:12;99149.94;;;1.50;96.83
13867;BME280;7003;46.982;15.248;2023-02-10T09:04:41;99139.16;;;1.76;92.15
13867;BME280;7003;46.982;15.248;2023-02-10T09:07:09;99144.88;;;2.03;87.05
13867;BME280;7003;46.982;15.248;2023-02-10T09:09:39;99149.69;;;1.33;80.34
13867;BME280;7003;46.982;15.248;2023-02-10T09:12:08;99148.69;;;1.09;79.60
13867;BME280;7003;46.982;15.248;2023-02-10T09:14:40;99149.41;;;1.23;77.34
13867;BME280;7003;46.982;15.248;2023-02-10T09:17:08;99149.59;;;1.22;78.96
13867;BME280;7003;46.982;15.248;2023-02-10T09:19:39;99156.59;;;1.28;79.33
13867;BME280;7003;46.982;15.248;2023-02-10T09:22:10;99158.53;;;1.39;72.09
13867;BME280;7003;46.982;15.248;2023-02-10T09:24:38;99160.88;;;1.47;73.11
13867;BME280;7003;46.982;15.248;2023-02-10T09:27:07;99157.44;;;1.83;71.42
13867;BME280;7003;46.982;15.248;2023-02-10T09:29:35;99165.69;;;1.86;71.45
13867;BME280;7003;46.982;15.248;2023-02-10T09:32:04;99171.00;;;2.46;68.24
13867;BME280;7003;46.982;15.248;2023-02-10T09:34:31;99169.38;;;2.87;70.05
13867;BME280;7003;46.982;15.248;2023-02-10T09:37:01;99163.63;;;2.55;68.69
13867;BME280;7003;46.982;15.248;2023-02-10T09:39:29;99159.72;;;3.10;69.09
13867;BME280;7003;46.982;15.248;2023-02-10T09:42:05;99160.88;;;3.26;69.48
13867;BME280;7003;46.982;15.248;2023-02-10T09:44:38;99156.81;;;3.94;64.42
13867;BME280;7003;46.982;15.248;2023-02-10T09:47:37;99153.53;;;3.52;63.20
13867;BME280;7003;46.982;15.248;2023-02-10T09:50:30;99144.97;;;3.44;63.50
13867;BME280;7003;46.982;15.248;2023-02-10T09:53:12;99154.44;;;3.69;61.00
13867;BME280;7003;46.982;15.248;2023-02-10T09:55:43;99150.00;;;4.09;64.72
13867;BME280;7003;46.982;15.248;2023-02-10T09:58:21;99155.63;;;4.58;57.96
13867;BME280;7003;46.982;15.248;2023-02-10T10:00:57;99150.75;;;4.21;62.71
13867;BME280;7003;46.982;15.248;2023-02-10T10:03:28;99154.94;;;4.06;58.76
13867;BME280;7003;46.982;15.248;2023-02-10T10:06:11;99153.50;;;4.55;60.23
13867;BME280;7003;46.982;15.248;2023-02-10T10:08:51;99141.06;;;5.17;58.97
13867;BME280;7003;46.982;15.248;2023-02-10T10:11:25;99148.03;;;5.62;58.20
13867;BME280;7003;46.982;15.248;2023-02-10T10:13:55;99142.84;;;6.32;55.53
13867;BME280;7003;46.982;15.248;2023-02-10T10:16:41;99131.81;;;6.40;53.45
13867;BME280;7003;46.982;15.248;2023-02-10T10:19:17;99132.56;;;6.63;53.60
13867;BME280;7003;46.982;15.248;2023-02-10T10:21:59;99121.59;;;7.13;50.25
13867;BME280;7003;46.982;15.248;2023-02-10T10:24:50;99130.47;;;7.33;49.63
13867;BME280;7003;46.982;15.248;2023-02-10T10:27:25;99124.84;;;7.20;45.44
13867;BME280;7003;46.982;15.248;2023-02-10T10:30:04;99128.38;;;6.99;48.95
13867;BME280;7003;46.982;15.248;2023-02-10T10:32:41;99130.47;;;6.65;47.38
13867;BME280;7003;46.982;15.248;2023-02-10T10:35:15;99116.50;;;7.43;44.18
13867;BME280;7003;46.982;15.248;2023-02-10T10:37:44;99114.69;;;8.11;43.79
13867;BME280;7003;46.982;15.248;2023-02-10T10:40:19;99114.59;;;7.86;43.26
13867;BME280;7003;46.982;15.248;2023-02-10T10:42:52;99111.06;;;6.86;43.73
13867;BME280;7003;46.982;15.248;2023-02-10T10:45:27;99109.19;;;6.01;47.03
13867;BME280;7003;46.982;15.248;2023-02-10T10:48:00;99097.97;;;7.01;49.37
13867;BME280;7003;46.982;15.248;2023-02-10T10:50:32;99094.81;;;8.29;44.91
13867;BME280;7003;46.982;15.248;2023-02-10T10:53:03;99092.28;;;8.74;41.28
13867;BME280;7003;46.982;15.248;2023-02-10T10:55:38;99087.94;;;8.23;40.90
13867;BME280;7003;46.982;15.248;2023-02-10T10:58:11;99086.88;;;9.30;43.41
13867;BME280;7003;46.982;15.248;2023-02-10T11:00:49;99096.31;;;9.77;41.21
13867;BME280;7003;46.982;15.248;2023-02-10T11:03:18;99091.00;;;9.77;39.97
13867;BME280;7003;46.982;15.248;2023-02-10T11:05:58;99095.94;;;9.29;40.51
13867;BME280;7003;46.982;15.248;2023-02-10T11:08:29;99094.34;;;9.33;39.10
13867;BME280;7003;46.982;15.248;2023-02-10T11:11:03;99088.66;;;7.93;40.19
13867;BME280;7003;46.982;15.248;2023-02-10T11:13:38;99083.97;;;8.30;42.46
13867;BME280;7003;46.982;15.248;2023-02-10T11:16:09;99084.81;;;8.41;42.25
13867;BME280;7003;46.982;15.248;2023-02-10T11:18:38;99080.59;;;8.65;38.71
13867;BME280;7003;46.982;15.248;2023-02-10T11:21:08;99073.69;;;9.05;39.51
13867;BME280;7003;46.982;15.248;2023-02-10T11:23:47;99062.41;;;10.13;38.42
13867;BME280;7003;46.982;15.248;2023-02-10T11:26:22;99069.78;;;9.72;37.60
13867;BME280;7003;46.982;15.248;2023-02-10T11:28:54;99058.56;;;10.34;36.54
13867;BME280;7003;46.982;15.248;2023-02-10T11:31:29;99055.06;;;10.38;37.65
13867;BME280;7003;46.982;15.248;2023-02-10T11:34:01;99050.19;;;11.13;35.37
13867;BME280;7003;46.982;15.248;2023-02-10T11:36:34;99041.09;;;10.91;35.65
13867;BME280;7003;46.982;15.248;2023-02-10T11:39:05;99042.69;;;10.87;35.98
13867;BME280;7003;46.982;15.248;2023-02-10T11:41:38;99045.91;;;10.11;35.20
13867;BME280;7003;46.982;15.248;2023-02-10T11:44:23;99044.31;;;7.68;38.86
13867;BME280;7003;46.982;15.248;2023-02-10T11:46:57;99034.53;;;7.11;42.91
13867;BME280;7003;46.982;15.248;2023-02-10T11:49:25;99035.25;;;8.57;40.77
13867;BME280;7003;46.982;15.248;2023-02-10T11:51:59;99036.38;;;7.68;38.79
13867;BME280;7003;46.982;15.248;2023-02-10T11:54:27;99036.41;;;7.73;38.10
13867;BME280;7003;46.982;15.248;2023-02-10T11:57:13;99028.06;;;8.32;38.27
13867;BME280;7003;46.982;15.248;2023-02-10T12:00:08;99025.59;;;8.00;39.37
13867;BME280;7003;46.982;15.248;2023-02-10T12:02:55;99028.56;;;8.19;38.55
13867;BME280;7003;46.982;15.248;2023-02-10T12:05:34;99028.47;;;7.73;39.90
13867;BME280;7003;46.982;15.248;2023-02-10T12:08:15;99026.09;;;6.40;42.37
13867;BME280;7003;46.982;15.248;2023-02-10T12:10:48;99021.84;;;7.91;42.38
13867;BME280;7003;46.982;15.248;2023-02-10T12:13:27;99017.38;;;9.13;37.95
13867;BME280;7003;46.982;15.248;2023-02-10T12:16:07;99018.25;;;8.63;40.24
13867;BME280;7003;46.982;15.248;2023-02-10T12:18:52;99022.75;;;8.37;39.37
13867;BME280;7003;46.982;15.248;2023-02-10T12:24:43;99025.63;;;8.30;36.66
13867;BME280;7003;46.982;15.248;2023-02-10T12:27:20;99016.59;;;9.02;37.62
13867;BME280;7003;46.982;15.248;2023-02-10T12:29:59;99009.69;;;9.01;38.08
13867;BME280;7003;46.982;15.248;2023-02-10T12:32:41;99004.41;;;8.96;37.37
13867;BME280;7003;46.982;15.248;2023-02-10T12:35:24;98997.56;;;9.54;36.36
13867;BME280;7003;46.982;15.248;2023-02-10T12:38:03;98997.31;;;8.46;35.29
13867;BME280;7003;46.982;15.248;2023-02-10T12:40:44;99004.16;;;8.11;36.41
13867;BME280;7003;46.982;15.248;2023-02-10T12:43:27;98994.63;;;8.10;38.11
13867;BME280;7003;46.982;15.248;2023-02-10T12:46:07;98989.84;;;8.18;35.32
13867;BME280;7003;46.982;15.248;2023-02-10T12:48:45;98980.31;;;8.82;36.26
13867;BME280;7003;46.982;15.248;2023-02-10T12:51:27;98977.63;;;8.98;36.25
13867;BME280;7003;46.982;15.248;2023-02-10T12:53:59;98975.13;;;9.26;35.81
13867;BME280;7003;46.982;15.248;2023-02-10T12:56:34;98975.56;;;8.59;36.05
13867;BME280;7003;46.982;15.248;2023-02-10T12:59:13;98968.09;;;8.61;36.09
13867;BME280;7003;46.982;15.248;2023-02-10T13:01:49;98969.22;;;8.35;37.19
13867;BME280;7003;46.982;15.248;2023-02-10T13:04:23;98968.88;;;7.81;37.67
13867;BME280;7003;46.982;15.248;2023-02-10T13:06:57;98972.91;;;8.54;37.79
13867;BME280;7003;46.982;15.248;2023-02-10T13:09:31;98961.75;;;8.57;39.50
13867;BME280;7003;46.982;15.248;2023-02-10T13:12:11;98952.09;;;9.02;37.44
13867;BME280;7003;46.982;15.248;2023-02-10T13:14:45;98955.28;;;9.04;36.46
13867;BME280;7003;46.982;15.248;2023-02-10T13:17:16;98956.47;;;8.27;38.61
13867;BME280;7003;46.982;15.248;2023-02-10T13:19:52;98966.03;;;8.43;39.22
13867;BME280;7003;46.982;15.248;2023-02-10T13:22:39;98965.47;;;8.26;38.81
13867;BME280;7003;46.982;15.248;2023-02-10T13:25:13;98969.41;;;8.89;38.92
13867;BME280;7003;46.982;15.248;2023-02-10T13:27:55;98969.19;;;8.65;38.91
13867;BME280;7003;46.982;15.248;2023-02-10T13:30:50;98968.94;;;8.31;38.67